createdAt,value
2022-12-15T00:00:19.532Z,11.87
2022-12-15T00:03:04.984Z,10.67
2022-12-15T00:05:50.433Z,11.53
2022-12-15T00:08:36.324Z,12.27
2022-12-15T00:11:21.804Z,11.93
2022-12-15T00:14:07.271Z,11.97
2022-12-15T00:16:52.770Z,10.90
2022-12-15T00:19:38.222Z,11.20
2022-12-15T00:22:24.668Z,12.40
2022-12-15T00:25:10.213Z,11.50
2022-12-15T00:27:55.789Z,12.17
2022-12-15T00:30:41.326Z,10.90
2022-12-15T00:33:31.018Z,10.40
2022-12-15T00:36:19.649Z,11.73
2022-12-15T00:38:47.545Z,10.63
2022-12-15T00:41:17.541Z,12.03
2022-12-15T00:43:44.969Z,12.70
2022-12-15T00:46:30.463Z,11.53
2022-12-15T00:48:57.644Z,12.23
2022-12-15T00:51:42.986Z,11.90
2022-12-15T00:54:29.254Z,11.67
2022-12-15T00:57:14.600Z,11.50
2022-12-15T00:59:59.993Z,11.47
2022-12-15T01:02:45.610Z,11.63
2022-12-15T01:05:31.215Z,11.40
2022-12-15T01:08:18.929Z,10.90
2022-12-15T01:11:04.336Z,11.70
2022-12-15T01:13:50.179Z,11.30
2022-12-15T01:16:35.744Z,11.43
2022-12-15T01:19:20.919Z,11.50
2022-12-15T01:21:49.710Z,11.27
2022-12-15T01:24:16.506Z,11.40
2022-12-15T01:26:43.204Z,11.37
2022-12-15T01:29:09.958Z,10.93
2022-12-15T01:31:36.721Z,10.73
2022-12-15T01:34:03.472Z,10.87
2022-12-15T01:36:30.312Z,11.13
2022-12-15T01:38:57.009Z,11.30
2022-12-15T01:41:24.014Z,12.03
2022-12-15T01:43:50.811Z,11.00
2022-12-15T01:46:20.030Z,10.60
2022-12-15T01:48:59.927Z,11.60
2022-12-15T01:51:35.497Z,11.53
2022-12-15T01:54:08.144Z,11.43
2022-12-15T01:56:40.085Z,11.70
2022-12-15T01:59:11.649Z,10.73
2022-12-15T02:01:38.551Z,11.10
2022-12-15T02:04:05.432Z,12.20
2022-12-15T02:06:32.222Z,11.70
2022-12-15T02:09:00.728Z,10.60
2022-12-15T02:11:55.630Z,11.00
2022-12-15T02:14:46.785Z,11.50
2022-12-15T02:17:52.393Z,11.53
2022-12-15T02:20:43.634Z,10.87
2022-12-15T02:23:47.237Z,11.37
2022-12-15T02:26:28.394Z,10.80
2022-12-15T02:29:13.421Z,11.53
2022-12-15T02:32:02.666Z,10.40
2022-12-15T02:34:56.279Z,11.30
2022-12-15T02:37:32.886Z,11.13
2022-12-15T02:39:59.941Z,10.60
2022-12-15T02:42:29.605Z,12.00
2022-12-15T02:45:08.534Z,11.47
2022-12-15T02:48:08.693Z,10.90
2022-12-15T02:50:48.860Z,12.03
2022-12-15T02:54:02.424Z,11.67
2022-12-15T02:56:34.612Z,11.27
2022-12-15T02:59:31.848Z,11.13
2022-12-15T03:02:03.601Z,11.23
2022-12-15T03:04:33.781Z,11.20
2022-12-15T03:07:04.687Z,11.73
2022-12-15T03:09:32.435Z,11.87
2022-12-15T03:11:59.533Z,11.47
2022-12-15T03:14:26.580Z,12.67
2022-12-15T03:16:54.575Z,11.80
2022-12-15T03:19:21.605Z,10.40
2022-12-15T03:21:48.349Z,10.70
2022-12-15T03:24:15.078Z,12.00
2022-12-15T03:26:42.132Z,12.00
2022-12-15T03:29:08.855Z,11.40
2022-12-15T03:31:36.074Z,12.07
2022-12-15T03:34:02.833Z,12.03
2022-12-15T03:36:29.533Z,11.87
2022-12-15T03:38:56.230Z,11.20
2022-12-15T03:41:22.945Z,10.97
2022-12-15T03:43:49.828Z,11.40
2022-12-15T03:46:17.275Z,11.30
2022-12-15T03:48:44.109Z,11.13
2022-12-15T03:51:10.967Z,11.53
2022-12-15T03:53:38.057Z,11.80
2022-12-15T03:56:04.929Z,11.10
2022-12-15T03:58:31.643Z,11.07
2022-12-15T04:00:58.460Z,10.60
2022-12-15T04:03:25.353Z,11.70
2022-12-15T04:05:52.076Z,11.93
2022-12-15T04:08:18.836Z,11.40
2022-12-15T04:10:45.638Z,11.70
2022-12-15T04:13:12.494Z,11.67
2022-12-15T04:15:40.761Z,11.13
2022-12-15T04:18:10.135Z,10.90
2022-12-15T04:20:38.513Z,11.60
2022-12-15T04:23:07.781Z,11.77
2022-12-15T04:25:53.567Z,11.03
2022-12-15T04:28:39.167Z,10.97
2022-12-15T04:31:30.644Z,12.00
2022-12-15T04:34:22.650Z,11.00
2022-12-15T04:37:09.959Z,11.93
2022-12-15T04:39:58.210Z,11.73
2022-12-15T04:42:44.178Z,11.63
2022-12-15T04:45:31.198Z,11.40
2022-12-15T04:48:17.676Z,11.97
2022-12-15T04:51:03.148Z,10.80
2022-12-15T04:53:48.287Z,11.80
2022-12-15T04:56:34.907Z,11.77
2022-12-15T04:59:20.680Z,11.10
2022-12-15T05:02:06.546Z,12.63
2022-12-15T05:04:52.449Z,11.07
2022-12-15T05:07:37.934Z,11.50
2022-12-15T05:10:24.489Z,12.47
2022-12-15T05:13:09.987Z,10.90
2022-12-15T05:15:55.645Z,10.93
2022-12-15T05:18:41.266Z,11.40
2022-12-15T05:21:26.824Z,11.97
2022-12-15T05:24:12.198Z,12.40
2022-12-15T05:26:57.562Z,11.97
2022-12-15T05:29:43.040Z,10.70
2022-12-15T05:32:09.832Z,11.37
2022-12-15T05:34:37.951Z,10.00
2022-12-15T05:37:07.296Z,11.83
2022-12-15T05:39:34.400Z,10.90
2022-12-15T05:42:01.416Z,12.30
2022-12-15T05:44:28.786Z,12.13
2022-12-15T05:46:55.731Z,11.20
2022-12-15T05:49:23.340Z,12.47
2022-12-15T05:51:50.514Z,11.80
2022-12-15T05:54:19.049Z,10.97
2022-12-15T05:56:46.897Z,10.13
2022-12-15T05:59:19.076Z,12.70
2022-12-15T06:01:46.057Z,10.90
2022-12-15T06:04:13.377Z,11.80
2022-12-15T06:06:41.143Z,10.90
2022-12-15T06:09:08.392Z,13.60
2022-12-15T06:11:35.254Z,12.83
2022-12-15T06:14:01.949Z,12.43
2022-12-15T06:16:29.240Z,11.27
2022-12-15T06:18:59.226Z,11.57
2022-12-15T06:21:29.081Z,11.40
2022-12-15T06:23:56.838Z,11.73
2022-12-15T06:26:25.515Z,10.97
2022-12-15T06:28:54.784Z,12.10
2022-12-15T06:31:23.012Z,12.80
2022-12-15T06:33:55.988Z,11.33
2022-12-15T06:36:26.476Z,11.23
2022-12-15T06:38:53.152Z,11.07
2022-12-15T06:41:21.600Z,10.83
2022-12-15T06:43:53.170Z,10.83
2022-12-15T06:46:20.477Z,11.10
2022-12-15T06:48:47.976Z,11.20
2022-12-15T06:51:17.388Z,10.83
2022-12-15T06:53:54.260Z,11.67
2022-12-15T06:56:33.124Z,12.20
2022-12-15T06:59:02.133Z,13.70
2022-12-15T07:01:29.844Z,14.30
2022-12-15T07:04:00.205Z,15.73
2022-12-15T07:06:28.663Z,17.37
2022-12-15T07:08:56.825Z,16.40
2022-12-15T07:11:23.854Z,17.03
2022-12-15T07:13:52.988Z,18.73
2022-12-15T07:16:21.464Z,19.43
2022-12-15T07:18:48.662Z,19.93
2022-12-15T07:21:15.856Z,19.43
2022-12-15T07:23:58.551Z,18.80
2022-12-15T07:26:26.276Z,19.80
2022-12-15T07:28:54.038Z,20.80
2022-12-15T07:31:21.778Z,19.93
2022-12-15T07:33:48.792Z,19.70
2022-12-15T07:36:15.905Z,21.03
2022-12-15T07:38:42.863Z,20.63
2022-12-15T07:41:10.343Z,21.50
2022-12-15T07:43:38.128Z,20.63
2022-12-15T07:46:05.851Z,20.80
2022-12-15T07:48:33.240Z,20.10
2022-12-15T07:51:11.086Z,19.47
2022-12-15T07:53:42.313Z,19.00
2022-12-15T07:56:10.055Z,19.60
2022-12-15T07:58:38.323Z,19.33
2022-12-15T08:01:08.591Z,18.80
2022-12-15T08:03:37.301Z,18.23
2022-12-15T08:06:05.806Z,17.80
2022-12-15T08:08:34.091Z,17.07
2022-12-15T08:11:09.277Z,17.43
2022-12-15T08:16:23.591Z,15.67
2022-12-15T08:18:50.396Z,17.07
2022-12-15T08:21:17.724Z,15.17
2022-12-15T08:23:45.118Z,15.70
2022-12-15T08:26:14.530Z,16.23
2022-12-15T08:28:41.881Z,16.93
2022-12-15T08:31:12.303Z,16.20
2022-12-15T08:33:39.772Z,15.33
2022-12-15T08:36:09.245Z,14.10
2022-12-15T08:38:38.636Z,16.97
2022-12-15T08:41:13.962Z,14.67
2022-12-15T08:43:47.496Z,14.67
2022-12-15T08:46:26.296Z,14.50
2022-12-15T08:48:53.510Z,14.33
2022-12-15T08:51:22.445Z,13.90
2022-12-15T08:53:49.555Z,13.80
2022-12-15T08:56:19.034Z,12.83
2022-12-15T08:58:47.271Z,12.33
2022-12-15T09:01:23.956Z,13.53
2022-12-15T09:03:56.567Z,13.83
2022-12-15T09:06:29.204Z,12.60
2022-12-15T09:08:57.497Z,11.90
2022-12-15T09:11:25.553Z,13.10
2022-12-15T09:13:52.298Z,12.60
2022-12-15T09:16:19.863Z,12.63
2022-12-15T09:18:52.932Z,12.17
2022-12-15T09:21:23.045Z,12.43
2022-12-15T09:23:51.968Z,12.77
2022-12-15T09:26:20.757Z,12.60
2022-12-15T09:28:50.317Z,11.70
2022-12-15T09:31:21.926Z,23.37
2022-12-15T09:33:50.277Z,26.50
2022-12-15T09:36:17.287Z,27.40
2022-12-15T09:38:44.650Z,30.23
2022-12-15T09:41:14.798Z,26.20
2022-12-15T09:43:47.973Z,27.40
2022-12-15T09:46:31.374Z,28.90
2022-12-15T09:48:59.593Z,28.97
2022-12-15T09:51:34.354Z,29.77
2022-12-15T09:54:01.829Z,28.07
2022-12-15T09:56:39.935Z,30.30
2022-12-15T09:59:16.236Z,28.57
2022-12-15T10:01:43.327Z,27.30
2022-12-15T10:04:21.576Z,30.13
2022-12-15T10:06:55.415Z,26.70
2022-12-15T10:09:28.728Z,28.73
2022-12-15T10:11:58.070Z,27.73
2022-12-15T10:14:31.533Z,29.33
2022-12-15T10:16:58.599Z,28.63
2022-12-15T10:19:43.024Z,29.13
2022-12-15T10:22:14.866Z,28.40
2022-12-15T10:27:49.210Z,24.97
2022-12-15T10:30:16.622Z,27.20
2022-12-15T10:32:51.614Z,31.07
2022-12-15T10:35:21.832Z,30.33
2022-12-15T10:37:50.072Z,31.70
2022-12-15T10:40:21.473Z,31.17
2022-12-15T10:42:50.035Z,29.50
2022-12-15T10:45:40.275Z,24.10
2022-12-15T10:48:18.193Z,20.23
2022-12-15T10:50:45.301Z,19.10
2022-12-15T10:53:36.246Z,17.80
2022-12-15T10:56:07.237Z,17.57
2022-12-15T10:58:45.567Z,16.87
2022-12-15T11:01:19.518Z,15.33
2022-12-15T11:03:50.512Z,16.23
2022-12-15T11:06:19.905Z,17.23
2022-12-15T11:08:47.497Z,14.80
2022-12-15T11:11:52.640Z,15.67
2022-12-15T11:14:19.794Z,15.20
2022-12-15T11:16:48.773Z,15.27
2022-12-15T11:19:21.271Z,15.50
2022-12-15T11:21:50.423Z,15.80
2022-12-15T11:24:30.235Z,15.43
2022-12-15T11:27:15.817Z,15.63
2022-12-15T11:29:50.034Z,14.43
2022-12-15T11:32:19.153Z,15.00
2022-12-15T11:34:47.065Z,13.87
2022-12-15T11:37:34.525Z,15.77
2022-12-15T11:40:22.244Z,14.83
2022-12-15T11:42:55.905Z,13.47
2022-12-15T11:45:41.825Z,12.40
2022-12-15T11:48:12.011Z,13.40
2022-12-15T11:50:51.039Z,12.50
2022-12-15T11:53:24.520Z,13.47
2022-12-15T11:55:56.621Z,12.83
2022-12-15T11:58:26.710Z,13.70
2022-12-15T12:01:06.278Z,13.20
2022-12-15T12:03:36.155Z,13.43
2022-12-15T12:06:03.482Z,12.30
2022-12-15T12:08:51.279Z,12.50
2022-12-15T12:11:29.674Z,12.70
2022-12-15T12:14:11.467Z,13.10
2022-12-15T12:16:57.515Z,13.50
2022-12-15T12:19:28.293Z,13.47
2022-12-15T12:22:00.459Z,13.73
2022-12-15T12:24:27.673Z,13.50
2022-12-15T12:27:02.435Z,13.40
2022-12-15T12:29:33.513Z,13.27
2022-12-15T12:32:05.217Z,12.50
2022-12-15T12:34:35.551Z,12.67
2022-12-15T12:37:14.574Z,12.97
2022-12-15T12:39:41.913Z,14.13
2022-12-15T12:42:21.681Z,12.63
2022-12-15T12:44:48.887Z,12.90
2022-12-15T12:47:24.215Z,12.77
2022-12-15T12:49:55.073Z,11.80
2022-12-15T12:52:24.925Z,13.47
2022-12-15T12:54:56.286Z,12.40
2022-12-15T12:57:35.611Z,12.50
2022-12-15T13:00:08.750Z,13.00
2022-12-15T13:02:38.010Z,12.70
2022-12-15T13:05:25.512Z,13.33
2022-12-15T13:07:58.378Z,12.17
2022-12-15T13:10:26.022Z,11.37
2022-12-15T13:12:53.977Z,12.67
2022-12-15T13:15:27.689Z,11.50
2022-12-15T13:17:57.711Z,12.37
2022-12-15T13:20:27.187Z,12.30
2022-12-15T13:22:54.432Z,12.50
2022-12-15T13:25:34.130Z,13.93
2022-12-15T13:28:02.146Z,12.30
2022-12-15T13:30:29.336Z,11.93
2022-12-15T13:33:14.352Z,14.00
2022-12-15T13:35:42.818Z,13.07
2022-12-15T13:38:17.679Z,13.60
2022-12-15T13:40:47.564Z,13.60
2022-12-15T13:43:31.963Z,13.10
2022-12-15T13:46:10.699Z,13.57
2022-12-15T13:48:42.189Z,12.47
2022-12-15T13:51:20.380Z,13.97
2022-12-15T13:53:51.488Z,14.23
2022-12-15T13:56:25.401Z,11.90
2022-12-15T13:59:03.247Z,12.10
2022-12-15T14:01:33.222Z,13.20
2022-12-15T14:04:16.658Z,13.80
2022-12-15T14:06:54.423Z,13.33
2022-12-15T14:09:32.173Z,12.90
2022-12-15T14:11:59.765Z,12.30
2022-12-15T14:14:28.688Z,14.53
2022-12-15T14:16:58.384Z,12.67
2022-12-15T14:19:25.922Z,13.13
2022-12-15T14:21:57.260Z,13.17
2022-12-15T14:24:38.992Z,13.30
2022-12-15T14:27:06.857Z,13.03
2022-12-15T14:29:34.371Z,13.87
2022-12-15T14:32:01.534Z,12.97
2022-12-15T14:34:29.127Z,14.43
2022-12-15T14:36:57.637Z,13.80
2022-12-15T14:39:25.973Z,13.87
2022-12-15T14:41:54.691Z,13.47
2022-12-15T14:44:36.177Z,14.10
2022-12-15T14:47:06.418Z,13.67
2022-12-15T14:49:38.161Z,13.87
2022-12-15T14:52:06.230Z,13.17
2022-12-15T14:54:37.636Z,12.80
2022-12-15T14:57:21.162Z,14.53
2022-12-15T14:59:49.164Z,13.10
2022-12-15T15:02:25.092Z,13.00
2022-12-15T15:03:09.888Z,28.50
2022-12-15T15:05:07.718Z,13.20
2022-12-15T15:07:36.216Z,13.43
2022-12-15T15:10:04.256Z,13.47
2022-12-15T15:12:44.119Z,14.43
2022-12-15T15:15:18.303Z,13.77
2022-12-15T15:17:48.844Z,13.37
2022-12-15T15:20:19.315Z,14.60
2022-12-15T15:22:47.240Z,13.57
2022-12-15T15:25:39.835Z,13.63
2022-12-15T15:28:19.639Z,13.87
2022-12-15T15:30:48.746Z,12.87
2022-12-15T15:33:16.121Z,14.60
2022-12-15T15:35:44.199Z,13.63
2022-12-15T15:38:20.539Z,14.30
2022-12-15T15:40:51.266Z,14.80
2022-12-15T15:43:19.234Z,14.73
2022-12-15T15:45:46.913Z,14.10
2022-12-15T15:48:16.918Z,15.23
2022-12-15T15:50:44.855Z,15.07
2022-12-15T15:53:15.678Z,14.60
2022-12-15T15:55:43.546Z,14.40
2022-12-15T15:58:14.025Z,15.67
2022-12-15T16:00:41.228Z,14.07
2022-12-15T16:03:08.968Z,14.30
2022-12-15T16:05:36.423Z,15.03
2022-12-15T16:08:04.155Z,14.67
2022-12-15T16:10:31.946Z,14.53
2022-12-15T16:13:03.214Z,14.40
2022-12-15T16:15:34.292Z,15.30
2022-12-15T16:18:01.419Z,14.77
2022-12-15T16:20:29.602Z,15.53
2022-12-15T16:23:04.348Z,14.93
2022-12-15T16:25:46.740Z,15.40
2022-12-15T16:28:18.981Z,16.57
2022-12-15T16:30:46.240Z,14.93
2022-12-15T16:33:13.605Z,16.17
2022-12-15T16:35:41.709Z,15.90
2022-12-15T16:38:22.655Z,14.40
2022-12-15T16:40:49.803Z,15.83
2022-12-15T16:43:18.714Z,16.50
2022-12-15T16:45:47.190Z,15.57
2022-12-15T16:48:14.554Z,14.47
2022-12-15T16:50:43.599Z,16.93
2022-12-15T16:53:15.444Z,16.80
2022-12-15T16:55:42.818Z,16.50
2022-12-15T16:58:11.972Z,17.37
2022-12-15T17:00:39.051Z,15.80
2022-12-15T17:03:07.223Z,16.33
2022-12-15T17:05:36.479Z,15.90
2022-12-15T17:08:06.053Z,17.60
2022-12-15T17:10:33.619Z,15.60
2022-12-15T17:13:08.123Z,15.77
2022-12-15T17:15:36.593Z,16.93
2022-12-15T17:18:05.171Z,17.60
2022-12-15T17:20:32.812Z,16.10
2022-12-15T17:23:01.700Z,16.10
2022-12-15T17:26:09.183Z,17.87
2022-12-15T17:28:20.352Z,16.80
2022-12-15T17:30:48.343Z,17.30
2022-12-15T17:33:19.928Z,16.97
2022-12-15T17:35:49.301Z,17.33
2022-12-15T17:38:18.363Z,16.20
2022-12-15T17:40:45.899Z,16.13
2022-12-15T17:43:14.264Z,16.57
2022-12-15T17:45:41.490Z,17.50
2022-12-15T17:48:08.583Z,16.20
2022-12-15T17:50:36.140Z,16.67
2022-12-15T17:53:05.452Z,17.30
2022-12-15T17:55:35.420Z,17.87
2022-12-15T17:58:03.430Z,15.70
2022-12-15T18:00:31.810Z,17.37
2022-12-15T18:02:59.979Z,16.60
2022-12-15T18:05:28.561Z,17.97
2022-12-15T18:07:56.907Z,17.10
2022-12-15T18:10:24.101Z,17.13
2022-12-15T18:12:51.232Z,15.90
2022-12-15T18:15:23.138Z,17.30
2022-12-15T18:17:50.512Z,17.10
2022-12-15T18:20:18.737Z,18.10
2022-12-15T18:22:46.607Z,18.73
2022-12-15T18:25:25.934Z,17.17
2022-12-15T18:27:53.996Z,17.60
2022-12-15T18:30:22.792Z,16.50
2022-12-15T18:32:51.610Z,16.67
2022-12-15T18:35:22.471Z,16.70
2022-12-15T18:37:50.561Z,17.47
2022-12-15T18:40:18.357Z,16.97
2022-12-15T18:42:46.942Z,17.00
2022-12-15T18:45:16.713Z,16.30
2022-12-15T18:47:43.837Z,17.50
2022-12-15T18:50:14.492Z,17.33
2022-12-15T18:52:41.606Z,17.50
2022-12-15T18:55:16.388Z,17.70
2022-12-15T18:57:43.492Z,15.67
2022-12-15T19:00:10.577Z,16.40
2022-12-15T19:02:37.816Z,16.70
2022-12-15T19:05:06.163Z,16.80
2022-12-15T19:07:33.710Z,17.07
2022-12-15T19:10:00.994Z,18.83
2022-12-15T19:12:28.071Z,20.70
2022-12-15T19:14:55.435Z,20.73
2022-12-15T19:17:42.645Z,23.77
2022-12-15T19:20:36.008Z,23.90
2022-12-15T19:23:03.294Z,25.00
2022-12-15T19:25:31.100Z,27.47
2022-12-15T19:27:59.847Z,26.97
2022-12-15T19:30:35.878Z,27.07
2022-12-15T19:33:07.588Z,24.83
2022-12-15T19:35:34.754Z,25.23
2022-12-15T19:38:02.115Z,27.10
2022-12-15T19:40:31.216Z,27.00
2022-12-15T19:42:58.898Z,25.20
2022-12-15T19:45:27.575Z,26.20
2022-12-15T19:47:55.045Z,25.50
2022-12-15T19:50:23.547Z,25.50
2022-12-15T19:52:56.953Z,24.90
2022-12-15T19:55:32.782Z,24.40
2022-12-15T19:58:00.834Z,23.20
2022-12-15T20:00:28.004Z,23.60
2022-12-15T20:02:56.651Z,23.23
2022-12-15T20:05:25.407Z,23.23
2022-12-15T20:07:53.403Z,22.20
2022-12-15T20:10:29.464Z,23.03
2022-12-15T20:12:59.219Z,20.77
2022-12-15T20:15:26.614Z,22.43
2022-12-15T20:17:56.470Z,23.30
2022-12-15T20:20:24.523Z,22.63
2022-12-15T20:22:54.361Z,21.67
2022-12-15T20:25:24.628Z,21.77
2022-12-15T20:27:52.055Z,20.80
2022-12-15T20:30:23.557Z,22.73
2022-12-15T20:32:50.668Z,20.47
2022-12-15T20:35:19.026Z,21.50
2022-12-15T20:37:46.944Z,20.63
2022-12-15T20:40:24.118Z,19.47
2022-12-15T20:42:51.980Z,20.70
2022-12-15T20:45:20.966Z,20.77
2022-12-15T20:47:49.148Z,20.80
2022-12-15T20:50:22.461Z,20.83
2022-12-15T20:52:49.713Z,20.07
2022-12-15T20:55:18.885Z,19.57
2022-12-15T20:57:45.980Z,19.27
2022-12-15T21:00:13.365Z,19.97
2022-12-15T21:02:41.268Z,20.20
2022-12-15T21:05:08.573Z,19.43
2022-12-15T21:07:35.722Z,18.60
2022-12-15T21:10:02.898Z,20.20
2022-12-15T21:12:29.988Z,18.03
2022-12-15T21:14:57.045Z,19.63
2022-12-15T21:17:25.735Z,17.57
2022-12-15T21:19:53.335Z,20.60
2022-12-15T21:22:23.452Z,19.07
2022-12-15T21:24:51.988Z,20.17
2022-12-15T21:27:19.199Z,18.27
2022-12-15T21:29:51.990Z,20.83
2022-12-15T21:32:19.842Z,18.00
2022-12-15T21:34:46.952Z,19.43
2022-12-15T21:37:43.394Z,18.63
2022-12-15T21:40:16.931Z,18.53
2022-12-15T21:42:44.055Z,18.47
2022-12-15T21:45:14.657Z,18.77
2022-12-15T21:48:00.290Z,18.30
2022-12-15T21:50:27.663Z,17.53
2022-12-15T21:52:54.747Z,18.60
2022-12-15T21:55:23.560Z,18.50
2022-12-15T21:57:51.686Z,17.43
2022-12-15T22:00:19.371Z,19.10
2022-12-15T22:02:47.321Z,17.73
2022-12-15T22:05:19.309Z,18.27
2022-12-15T22:07:46.574Z,17.00
2022-12-15T22:10:13.760Z,17.50
2022-12-15T22:12:41.508Z,17.60
2022-12-15T22:15:16.055Z,17.13
2022-12-15T22:17:44.028Z,18.17
2022-12-15T22:20:18.340Z,17.70
2022-12-15T22:22:45.727Z,18.07
2022-12-15T22:25:30.828Z,18.33
2022-12-15T22:27:57.931Z,18.83
2022-12-15T22:30:25.919Z,19.17
2022-12-15T22:32:53.784Z,18.30
2022-12-15T22:35:24.277Z,18.60
2022-12-15T22:37:53.594Z,16.73
2022-12-15T22:40:21.306Z,17.70
2022-12-15T22:42:50.694Z,16.07
2022-12-15T22:45:19.884Z,18.10
2022-12-15T22:47:47.698Z,17.20
2022-12-15T22:50:16.567Z,18.50
2022-12-15T22:52:45.576Z,17.50
2022-12-15T22:55:19.964Z,20.70
2022-12-15T22:57:56.216Z,20.50
2022-12-15T23:00:23.393Z,19.87
2022-12-15T23:02:50.547Z,19.97
2022-12-15T23:05:19.446Z,20.40
2022-12-15T23:07:46.727Z,21.60
2022-12-15T23:10:33.656Z,21.67
2022-12-15T23:13:00.743Z,21.73
2022-12-15T23:15:48.310Z,21.87
2022-12-15T23:18:15.455Z,21.57
2022-12-15T23:20:42.614Z,21.37
2022-12-15T23:23:09.978Z,22.10
2022-12-15T23:25:37.149Z,23.07
2022-12-15T23:28:05.285Z,21.40
2022-12-15T23:30:32.591Z,22.30
2022-12-15T23:32:59.869Z,22.23
2022-12-15T23:35:26.983Z,20.60
2022-12-15T23:37:54.198Z,20.67
2022-12-15T23:40:22.870Z,21.50
2022-12-15T23:42:50.551Z,22.67
2022-12-15T23:45:18.076Z,21.10
2022-12-15T23:47:45.328Z,21.73
2022-12-15T23:50:12.505Z,21.00
2022-12-15T23:52:39.613Z,21.50
2022-12-15T23:55:10.156Z,21.10
2022-12-15T23:57:38.220Z,22.03
